Time;durP1;ratioP1;P1;durP2;ratioP2;P2;SDS_P1;SDS_P2;PMS_P1;PMS_P2;Temp;Humidity;BMP_temperature;BMP_pressure;BME280_temperature;BME280_humidity;BME280_pressure;Samples;Min_cycle;Max_cycle;Signal;HPM_P1;HPM_P2
2021/05/28 00:00:58;;;;;;;11.00;8.03;;;11.50;99.90;;;;;;5013316;28;20198;-78
2021/05/28 00:03:25;;;;;;;11.60;8.90;;;11.50;99.90;;;;;;5031314;28;20444;-77
2021/05/28 00:05:51;;;;;;;8.97;8.07;;;11.40;99.90;;;;;;5013469;28;20880;-77
2021/05/28 00:08:16;;;;;;;9.33;8.37;;;11.40;99.90;;;;;;5013530;28;20223;-78
2021/05/28 00:10:43;;;;;;;9.50;7.87;;;11.50;99.90;;;;;;5031052;28;20200;-77
2021/05/28 00:13:09;;;;;;;9.17;8.37;;;11.40;99.90;;;;;;5013294;28;20264;-77
2021/05/28 00:15:34;;;;;;;9.90;8.33;;;11.40;99.90;;;;;;5031392;28;20484;-78
2021/05/28 00:18:01;;;;;;;11.70;8.47;;;11.40;99.90;;;;;;5031320;28;20205;-78
2021/05/28 00:20:26;;;;;;;8.57;7.60;;;11.30;99.90;;;;;;5031578;28;20181;-78
2021/05/28 00:22:52;;;;;;;9.43;8.37;;;11.40;99.90;;;;;;5012545;28;20432;-78
2021/05/28 00:25:18;;;;;;;9.03;8.10;;;11.40;99.90;;;;;;5030987;28;20239;-78
2021/05/28 00:27:44;;;;;;;10.17;9.10;;;11.40;99.90;;;;;;5030853;28;20685;-79
2021/05/28 00:30:10;;;;;;;9.23;8.33;;;11.50;99.90;;;;;;5031267;28;20240;-80
2021/05/28 00:32:36;;;;;;;10.30;8.90;;;11.40;99.90;;;;;;5030497;28;20493;-77
2021/05/28 00:35:02;;;;;;;10.57;8.20;;;11.50;99.90;;;;;;5031180;28;20421;-77
2021/05/28 00:37:27;;;;;;;11.23;10.13;;;11.50;99.90;;;;;;5030833;28;20216;-76
2021/05/28 00:39:53;;;;;;;9.70;8.07;;;11.40;99.90;;;;;;5030985;28;20499;-78
2021/05/28 00:42:18;;;;;;;13.53;8.50;;;11.40;99.90;;;;;;5012994;28;20199;-79
2021/05/28 00:44:44;;;;;;;9.30;8.33;;;11.40;99.90;;;;;;5031018;28;20231;-77
2021/05/28 00:47:10;;;;;;;10.13;8.67;;;11.40;99.90;;;;;;5030626;28;20232;-77
2021/05/28 00:49:36;;;;;;;11.00;8.70;;;11.40;99.90;;;;;;5031085;28;20684;-77
2021/05/28 00:52:02;;;;;;;11.20;8.50;;;11.40;99.90;;;;;;5030194;28;20425;-77
2021/05/28 00:54:28;;;;;;;9.60;7.50;;;11.30;99.90;;;;;;5015173;28;20483;-77
2021/05/28 00:56:53;;;;;;;10.10;7.50;;;11.30;99.90;;;;;;5034379;28;20952;-79
2021/05/28 00:59:19;;;;;;;8.70;7.50;;;11.30;99.90;;;;;;5034938;28;20196;-77
2021/05/28 01:01:47;;;;;;;8.17;6.90;;;11.30;99.90;;;;;;5033979;28;20185;-77
2021/05/28 01:04:12;;;;;;;8.50;6.47;;;11.30;99.90;;;;;;5016933;28;20867;-77
2021/05/28 01:06:38;;;;;;;7.83;4.97;;;11.30;99.90;;;;;;5034130;28;20432;-77
2021/05/28 01:09:05;;;;;;;5.90;5.07;;;11.30;99.90;;;;;;5034384;28;20215;-80
2021/05/28 01:11:31;;;;;;;7.93;6.60;;;11.30;99.90;;;;;;5034119;28;20202;-77
2021/05/28 01:13:56;;;;;;;7.53;6.83;;;11.30;99.90;;;;;;5034213;28;20464;-78
2021/05/28 01:16:22;;;;;;;8.87;5.80;;;11.30;99.90;;;;;;5034833;28;20185;-77
2021/05/28 01:18:48;;;;;;;7.63;6.30;;;11.30;99.90;;;;;;5034280;28;20205;-77
2021/05/28 01:21:14;;;;;;;6.37;5.13;;;11.30;99.90;;;;;;5033623;28;20197;-77
2021/05/28 01:23:39;;;;;;;6.23;4.90;;;11.30;99.90;;;;;;5031562;28;20733;-77
2021/05/28 01:26:06;;;;;;;5.83;5.30;;;11.30;99.90;;;;;;5029748;28;20444;-77
2021/05/28 01:28:31;;;;;;;7.70;4.90;;;11.30;99.90;;;;;;5034139;28;20252;-77
2021/05/28 01:30:58;;;;;;;6.20;5.70;;;11.30;99.90;;;;;;5031802;28;20492;-79
2021/05/28 01:33:25;;;;;;;8.40;5.53;;;11.20;99.90;;;;;;5030660;28;20240;-77
2021/05/28 01:35:52;;;;;;;6.37;4.23;;;11.20;99.90;;;;;;5033887;28;20475;-77
2021/05/28 01:38:18;;;;;;;6.30;5.03;;;11.20;99.90;;;;;;5032969;28;20876;-78
2021/05/28 01:40:44;;;;;;;6.90;5.60;;;11.20;99.90;;;;;;5032660;28;20451;-79
2021/05/28 01:43:09;;;;;;;6.37;4.90;;;11.10;99.90;;;;;;5012463;28;20456;-77
2021/05/28 01:45:35;;;;;;;5.90;4.37;;;11.10;99.90;;;;;;5033799;28;20181;-77
2021/05/28 01:48:02;;;;;;;6.70;4.10;;;11.10;99.90;;;;;;5031272;28;20230;-78
2021/05/28 01:50:28;;;;;;;5.00;4.50;;;11.10;99.90;;;;;;5033888;28;20171;-78
2021/05/28 01:52:53;;;;;;;6.20;4.50;;;11.10;99.90;;;;;;5033512;28;20436;-79
2021/05/28 01:55:19;;;;;;;7.37;4.40;;;11.10;99.90;;;;;;5014329;28;20647;-77
2021/05/28 01:57:44;;;;;;;8.30;4.00;;;11.10;99.90;;;;;;5033391;28;20220;-77
2021/05/28 02:00:13;;;;;;;4.27;3.97;;;11.10;99.90;;;;;;5031453;28;20188;-77
2021/05/28 02:02:39;;;;;;;4.20;3.87;;;11.10;99.90;;;;;;5033553;28;20252;-80
2021/05/28 02:05:07;;;;;;;4.53;4.00;;;11.10;99.90;;;;;;5014428;28;21045;-77
2021/05/28 02:07:33;;;;;;;5.03;3.90;;;11.10;99.90;;;;;;5014940;28;20212;-79
2021/05/28 02:09:59;;;;;;;6.70;3.93;;;11.10;99.90;;;;;;5015262;28;20518;-77
2021/05/28 02:12:24;;;;;;;4.27;3.90;;;11.10;99.90;;;;;;5015012;28;20179;-77
2021/05/28 02:14:50;;;;;;;3.90;3.50;;;11.10;99.90;;;;;;5015213;28;20537;-80
2021/05/28 02:17:16;;;;;;;3.50;3.20;;;11.10;99.90;;;;;;5032611;28;20798;-79
2021/05/28 02:19:42;;;;;;;3.63;3.33;;;11.10;99.90;;;;;;5031614;28;20534;-79
2021/05/28 02:22:10;;;;;;;10.30;3.73;;;11.10;99.90;;;;;;5026436;28;20444;-77
2021/05/28 02:24:36;;;;;;;3.30;3.00;;;11.10;99.90;;;;;;5028706;28;20216;-77
2021/05/28 02:27:02;;;;;;;3.33;3.10;;;11.10;99.90;;;;;;5031530;28;20494;-77
2021/05/28 02:29:28;;;;;;;3.50;3.30;;;11.00;99.90;;;;;;5029794;28;20701;-77
2021/05/28 02:31:53;;;;;;;3.77;3.20;;;11.00;99.90;;;;;;5032952;28;20533;-79
2021/05/28 02:34:19;;;;;;;4.00;3.17;;;11.00;99.90;;;;;;5030432;28;20638;-77
2021/05/28 02:36:44;;;;;;;3.30;2.73;;;11.00;99.90;;;;;;5015141;28;20174;-76
2021/05/28 02:39:10;;;;;;;6.50;3.67;;;11.00;99.90;;;;;;5030951;28;20170;-77
2021/05/28 02:41:35;;;;;;;3.93;3.00;;;11.00;99.90;;;;;;5028257;28;20197;-78
2021/05/28 02:44:03;;;;;;;4.97;2.67;;;11.00;99.90;;;;;;5014781;28;20185;-78
2021/05/28 02:46:30;;;;;;;5.80;2.90;;;10.90;99.90;;;;;;5030944;28;20186;-78
2021/05/28 02:48:56;;;;;;;5.63;3.30;;;10.90;99.90;;;;;;5031959;28;20882;-80
2021/05/28 02:51:22;;;;;;;5.17;3.23;;;10.90;99.90;;;;;;5027487;28;20436;-77
2021/05/28 02:53:47;;;;;;;4.37;3.60;;;10.90;99.90;;;;;;5031419;28;20207;-77
2021/05/28 02:56:13;;;;;;;4.80;4.40;;;10.90;99.90;;;;;;5030454;28;20208;-77
2021/05/28 02:58:39;;;;;;;4.70;3.70;;;10.90;99.90;;;;;;5030934;28;20983;-78
2021/05/28 03:01:04;;;;;;;3.90;3.27;;;10.90;99.90;;;;;;5032189;28;20733;-78
2021/05/28 03:03:30;;;;;;;3.43;3.23;;;10.90;99.90;;;;;;5030533;28;20212;-77
2021/05/28 03:05:56;;;;;;;3.57;3.27;;;10.80;99.90;;;;;;5013738;28;20186;-78
2021/05/28 03:08:21;;;;;;;2.80;2.60;;;10.80;99.90;;;;;;5031831;28;20288;-79
2021/05/28 03:10:47;;;;;;;7.63;3.00;;;10.80;99.90;;;;;;5025836;28;21014;-77
2021/05/28 03:13:13;;;;;;;4.77;3.30;;;10.80;99.90;;;;;;5032357;28;20178;-77
2021/05/28 03:15:39;;;;;;;3.70;3.37;;;10.80;99.90;;;;;;5011337;28;20442;-77
2021/05/28 03:18:11;;;;;;;3.30;3.00;;;10.80;99.90;;;;;;5031560;28;20436;-77
2021/05/28 03:20:37;;;;;;;5.40;3.50;;;10.80;99.90;;;;;;5029811;28;20193;-77
2021/05/28 03:23:08;;;;;;;3.70;3.40;;;10.80;99.90;;;;;;5013655;28;20497;-77
2021/05/28 03:25:34;;;;;;;3.37;3.17;;;10.80;99.90;;;;;;5010484;28;20766;-77
2021/05/28 03:27:59;;;;;;;3.70;3.20;;;10.80;99.90;;;;;;5031834;28;20444;-77
2021/05/28 03:30:25;;;;;;;5.07;3.10;;;10.70;99.90;;;;;;5014178;28;20654;-77
2021/05/28 03:32:51;;;;;;;5.53;4.07;;;10.60;99.90;;;;;;5029872;28;20256;-77
2021/05/28 03:35:17;;;;;;;3.47;3.10;;;10.60;99.90;;;;;;5031406;28;20202;-77
2021/05/28 03:37:43;;;;;;;3.20;3.00;;;10.50;99.90;;;;;;5013736;28;20215;-77
2021/05/28 03:40:10;;;;;;;3.53;3.17;;;10.50;99.90;;;;;;5025319;28;21008;-77
2021/05/28 03:42:36;;;;;;;3.40;3.10;;;10.40;99.90;;;;;;5032072;28;20177;-76
2021/05/28 03:45:04;;;;;;;2.83;2.63;;;10.40;99.90;;;;;;5012225;28;20817;-78
2021/05/28 03:47:29;;;;;;;4.20;3.23;;;10.30;99.90;;;;;;5031821;28;20432;-78
2021/05/28 03:49:55;;;;;;;3.23;2.93;;;10.30;99.90;;;;;;5029175;28;20472;-78
2021/05/28 03:52:20;;;;;;;3.63;2.97;;;10.20;99.90;;;;;;5029773;28;20272;-77
2021/05/28 03:54:46;;;;;;;3.93;3.63;;;10.10;99.90;;;;;;5010584;28;20205;-77
2021/05/28 03:57:12;;;;;;;4.37;3.13;;;10.00;99.90;;;;;;5031109;28;20627;-77
2021/05/28 03:59:37;;;;;;;3.47;3.20;;;9.90;99.90;;;;;;5031495;28;20282;-77
2021/05/28 04:02:03;;;;;;;4.50;4.03;;;9.90;99.90;;;;;;5025866;28;20185;-78
2021/05/28 04:04:29;;;;;;;9.23;3.77;;;9.80;99.90;;;;;;5024976;28;20692;-80
2021/05/28 04:06:54;;;;;;;3.90;3.60;;;9.70;99.90;;;;;;5029567;28;20184;-77
2021/05/28 04:09:20;;;;;;;4.80;4.23;;;9.60;99.90;;;;;;5027178;28;20230;-76
2021/05/28 04:11:45;;;;;;;3.80;3.50;;;9.60;99.90;;;;;;5010291;28;20186;-78
2021/05/28 04:14:11;;;;;;;3.80;3.30;;;9.60;99.90;;;;;;5028831;28;20214;-77
2021/05/28 04:16:36;;;;;;;3.80;3.50;;;9.50;99.90;;;;;;5029193;28;20188;-76
2021/05/28 04:19:02;;;;;;;4.17;3.77;;;9.50;99.90;;;;;;5012128;28;20203;-77
2021/05/28 04:21:27;;;;;;;6.70;4.20;;;9.50;99.90;;;;;;5018204;28;20189;-79
2021/05/28 04:23:53;;;;;;;4.93;4.20;;;9.60;99.90;;;;;;5030386;28;20188;-77
2021/05/28 04:26:18;;;;;;;4.13;3.70;;;9.60;99.90;;;;;;5027709;28;20205;-77
2021/05/28 04:28:44;;;;;;;4.50;4.10;;;9.70;99.90;;;;;;5015676;28;20205;-78
2021/05/28 04:31:10;;;;;;;5.80;4.83;;;9.70;99.90;;;;;;5031054;28;20667;-80
2021/05/28 04:33:36;;;;;;;4.93;3.70;;;9.70;99.90;;;;;;5035312;28;20458;-76
2021/05/28 04:36:01;;;;;;;4.10;3.70;;;9.80;99.90;;;;;;5032841;28;20660;-77
2021/05/28 04:38:27;;;;;;;8.40;4.40;;;9.80;99.90;;;;;;5034598;28;20259;-78
2021/05/28 04:40:53;;;;;;;4.70;4.30;;;10.00;99.90;;;;;;5030929;28;20189;-76
2021/05/28 04:43:20;;;;;;;5.33;4.53;;;10.10;99.90;;;;;;5033046;28;20193;-79
2021/05/28 04:45:46;;;;;;;5.77;5.17;;;10.20;99.90;;;;;;5016858;28;20464;-77
2021/05/28 04:48:11;;;;;;;9.30;4.87;;;10.20;99.90;;;;;;5032639;28;20458;-77
2021/05/28 04:50:38;;;;;;;6.27;5.20;;;10.20;99.90;;;;;;5034883;28;20492;-76
2021/05/28 04:53:05;;;;;;;11.60;4.90;;;10.20;99.90;;;;;;5034879;28;20164;-77
2021/05/28 04:55:31;;;;;;;6.70;5.47;;;10.40;99.90;;;;;;5025878;28;20465;-77
2021/05/28 04:57:57;;;;;;;7.03;5.80;;;10.50;99.90;;;;;;5034229;28;20441;-75
2021/05/28 05:00:23;;;;;;;14.30;7.60;;;10.50;99.90;;;;;;5029231;28;20451;-76
2021/05/28 05:02:49;;;;;;;9.20;5.63;;;10.60;99.90;;;;;;5016514;28;20323;-76
2021/05/28 05:05:16;;;;;;;7.30;5.90;;;10.70;99.90;;;;;;5032036;28;20920;-76
2021/05/28 05:07:42;;;;;;;8.50;6.33;;;10.70;99.90;;;;;;5015872;28;20202;-76
2021/05/28 05:10:09;;;;;;;6.80;6.10;;;10.90;99.90;;;;;;5032078;28;20471;-77
2021/05/28 05:12:35;;;;;;;9.20;6.53;;;11.00;99.90;;;;;;5022595;28;20270;-76
2021/05/28 05:15:00;;;;;;;10.47;7.00;;;11.10;99.90;;;;;;5033380;28;20512;-77
2021/05/28 05:17:26;;;;;;;13.17;7.37;;;11.30;99.90;;;;;;5033835;28;20205;-77
2021/05/28 05:19:52;;;;;;;8.93;7.50;;;11.50;99.90;;;;;;5033065;28;20189;-76
2021/05/28 05:22:17;;;;;;;9.27;7.10;;;11.70;99.90;;;;;;5027526;28;20619;-77
2021/05/28 05:24:43;;;;;;;9.73;7.00;;;11.80;99.90;;;;;;5030742;28;20280;-76
2021/05/28 05:27:08;;;;;;;9.20;7.37;;;11.90;99.90;;;;;;5032150;28;20206;-77
2021/05/28 05:29:34;;;;;;;10.77;7.83;;;12.00;99.90;;;;;;5031548;28;20213;-77
2021/05/28 05:31:59;;;;;;;10.13;7.77;;;11.90;99.90;;;;;;5033551;28;20550;-76
2021/05/28 05:34:25;;;;;;;10.17;7.97;;;12.10;99.90;;;;;;5031781;28;20178;-76
2021/05/28 05:36:50;;;;;;;11.77;7.30;;;12.20;99.90;;;;;;5032608;28;20644;-76
2021/05/28 05:39:16;;;;;;;9.83;7.20;;;12.40;99.90;;;;;;5030002;28;20277;-76
2021/05/28 05:41:42;;;;;;;10.93;7.10;;;12.30;99.90;;;;;;5030725;28;20277;-77
2021/05/28 05:44:08;;;;;;;10.13;7.13;;;12.40;99.90;;;;;;5033224;28;20185;-77
2021/05/28 05:46:34;;;;;;;13.27;7.20;;;12.50;99.90;;;;;;5031474;28;20189;-77
2021/05/28 05:48:59;;;;;;;11.57;7.87;;;12.60;99.90;;;;;;5032881;28;20460;-76
2021/05/28 05:51:25;;;;;;;12.47;8.40;;;12.70;99.90;;;;;;5031587;28;20795;-77
2021/05/28 05:53:51;;;;;;;11.30;7.70;;;12.70;99.90;;;;;;5027797;28;20189;-77
2021/05/28 05:56:16;;;;;;;11.47;6.60;;;12.80;99.90;;;;;;5026799;28;20196;-77
2021/05/28 05:58:42;;;;;;;14.37;7.40;;;12.80;99.90;;;;;;5030581;28;20240;-76
2021/05/28 06:01:08;;;;;;;9.47;7.87;;;12.90;99.90;;;;;;5032916;28;20186;-77
2021/05/28 06:03:34;;;;;;;11.10;8.17;;;13.00;99.90;;;;;;5028252;28;20440;-77
2021/05/28 06:06:00;;;;;;;8.97;8.07;;;13.00;99.90;;;;;;5028373;28;20427;-77
2021/05/28 06:08:25;;;;;;;9.83;8.10;;;13.00;99.90;;;;;;5028995;28;20217;-77
2021/05/28 06:10:51;;;;;;;12.00;7.40;;;13.00;99.90;;;;;;5027999;28;20209;-77
2021/05/28 06:13:16;;;;;;;11.87;7.60;;;13.00;99.90;;;;;;5024862;28;20197;-77
2021/05/28 06:15:42;;;;;;;15.43;7.53;;;13.10;99.90;;;;;;5027413;28;20178;-77
2021/05/28 06:18:07;;;;;;;9.10;7.30;;;13.20;99.90;;;;;;5028267;28;20203;-77
2021/05/28 06:20:33;;;;;;;10.93;7.20;;;13.20;99.90;;;;;;5025734;28;20260;-76
2021/05/28 06:23:00;;;;;;;8.80;7.27;;;13.20;99.90;;;;;;5027654;28;20193;-76
2021/05/28 06:25:26;;;;;;;11.20;7.33;;;13.30;99.90;;;;;;5009725;28;20193;-77
2021/05/28 06:27:51;;;;;;;19.67;9.63;;;13.30;99.90;;;;;;5027425;28;20464;-76
2021/05/28 06:30:17;;;;;;;17.47;8.40;;;13.40;99.90;;;;;;5026478;28;21237;-77
2021/05/28 06:32:43;;;;;;;20.00;8.00;;;13.50;99.90;;;;;;5028315;28;20185;-76
2021/05/28 06:35:09;;;;;;;15.63;8.47;;;13.50;99.90;;;;;;5031452;28;20429;-76
2021/05/28 06:37:34;;;;;;;10.43;7.70;;;13.60;99.90;;;;;;5026464;28;20261;-77
2021/05/28 06:40:00;;;;;;;10.67;7.83;;;13.70;99.90;;;;;;5026643;28;20182;-76
2021/05/28 06:42:25;;;;;;;13.20;7.93;;;13.70;99.90;;;;;;5025807;28;20249;-77
2021/05/28 06:44:51;;;;;;;7.77;6.80;;;13.70;99.90;;;;;;5027174;28;20182;-77
2021/05/28 06:47:17;;;;;;;7.70;6.60;;;13.90;99.90;;;;;;5024858;28;20244;-76
2021/05/28 06:49:43;;;;;;;12.90;7.93;;;14.00;99.90;;;;;;5027646;28;20515;-77
2021/05/28 06:52:10;;;;;;;12.23;7.17;;;14.20;99.90;;;;;;5025043;28;20437;-77
2021/05/28 06:54:35;;;;;;;9.73;7.47;;;14.40;99.90;;;;;;5026329;28;20244;-77
2021/05/28 06:57:01;;;;;;;8.93;7.57;;;14.50;99.90;;;;;;5008532;28;20528;-77
2021/05/28 06:59:28;;;;;;;7.87;5.90;;;14.80;99.90;;;;;;5009620;28;20186;-77
2021/05/28 07:01:54;;;;;;;8.30;6.50;;;15.20;99.90;;;;;;5023438;28;20428;-75
2021/05/28 07:04:20;;;;;;;8.03;6.60;;;15.30;99.90;;;;;;5028679;28;20444;-75
2021/05/28 07:06:46;;;;;;;8.30;6.43;;;15.30;99.90;;;;;;5032479;28;20944;-75
2021/05/28 07:09:11;;;;;;;7.20;6.50;;;15.10;99.90;;;;;;5025461;28;20276;-76
2021/05/28 07:11:37;;;;;;;7.80;5.73;;;15.00;99.90;;;;;;5023765;28;20554;-77
2021/05/28 07:14:04;;;;;;;7.70;6.00;;;15.10;99.90;;;;;;5007836;28;20181;-77
2021/05/28 07:16:30;;;;;;;7.27;6.57;;;15.20;99.90;;;;;;5022510;28;20890;-76
2021/05/28 07:18:56;;;;;;;9.27;7.20;;;15.40;99.90;;;;;;5026700;28;20467;-76
2021/05/28 07:21:28;;;;;;;15.97;8.60;;;15.90;99.90;;;;;;5011434;28;20431;-76
2021/05/28 07:23:54;;;;;;;8.83;6.30;;;16.10;99.90;;;;;;5030058;28;20933;-76
2021/05/28 07:26:20;;;;;;;8.20;6.70;;;16.30;99.90;;;;;;5026867;28;20440;-77
2021/05/28 07:28:46;;;;;;;8.87;5.87;;;16.30;99.90;;;;;;5026713;28;20468;-77
2021/05/28 07:31:12;;;;;;;11.63;5.43;;;16.20;99.90;;;;;;5026362;28;20446;-78
2021/05/28 07:33:37;;;;;;;8.10;5.60;;;16.70;99.90;;;;;;5025068;28;20468;-77
2021/05/28 07:36:05;;;;;;;8.53;6.27;;;16.90;99.90;;;;;;5026910;28;20202;-77
2021/05/28 07:38:31;;;;;;;6.87;6.20;;;17.10;99.90;;;;;;5031517;28;20428;-76
2021/05/28 07:40:57;;;;;;;7.33;6.60;;;17.00;99.90;;;;;;5031789;28;20466;-76
2021/05/28 07:43:22;;;;;;;11.50;6.90;;;16.80;99.90;;;;;;5026137;28;20428;-76
2021/05/28 07:45:51;;;;;;;7.43;5.97;;;16.40;99.90;;;;;;5026268;28;20220;-77
2021/05/28 07:48:20;;;;;;;6.00;5.50;;;16.40;99.90;;;;;;5026184;28;20212;-75
2021/05/28 07:50:48;;;;;;;7.70;6.27;;;16.40;99.90;;;;;;5025397;28;20425;-77
2021/05/28 07:53:17;;;;;;;10.47;5.90;;;16.40;99.90;;;;;;5023549;28;20429;-76
2021/05/28 07:55:43;;;;;;;7.40;5.67;;;16.40;99.90;;;;;;5025102;28;20448;-78
2021/05/28 07:58:09;;;;;;;6.23;5.57;;;16.40;99.90;;;;;;5025868;28;20440;-78
2021/05/28 08:00:35;;;;;;;4.50;4.10;;;16.60;99.90;;;;;;5023681;28;20788;-77
2021/05/28 08:03:01;;;;;;;6.10;5.50;;;16.50;99.90;;;;;;5006709;28;20178;-77
2021/05/28 08:05:28;;;;;;;6.73;5.33;;;16.30;99.90;;;;;;5026402;28;20508;-76
2021/05/28 08:07:55;;;;;;;6.17;5.57;;;16.40;99.90;;;;;;5012013;28;20531;-76
2021/05/28 08:10:21;;;;;;;6.27;4.73;;;16.30;99.90;;;;;;5031201;28;20460;-76
2021/05/28 08:12:48;;;;;;;11.00;5.87;;;16.40;99.90;;;;;;5030572;28;20425;-75
2021/05/28 08:15:14;;;;;;;8.67;5.30;;;16.30;99.90;;;;;;5030753;28;20436;-77
2021/05/28 08:17:39;;;;;;;10.70;6.57;;;16.30;99.90;;;;;;5013429;28;20833;-78
2021/05/28 08:20:05;;;;;;;6.63;5.93;;;16.30;99.90;;;;;;5030576;28;20186;-76
2021/05/28 08:22:31;;;;;;;7.10;5.97;;;16.30;99.90;;;;;;5031280;28;20239;-75
2021/05/28 08:24:56;;;;;;;10.10;6.30;;;16.30;99.90;;;;;;5031020;28;20457;-74
2021/05/28 08:27:22;;;;;;;6.63;5.70;;;16.20;99.90;;;;;;5031406;28;20225;-77
2021/05/28 08:29:47;;;;;;;8.80;6.00;;;16.30;99.90;;;;;;5031495;28;20271;-74
2021/05/28 08:32:15;;;;;;;7.50;5.53;;;16.30;99.90;;;;;;5014545;28;20548;-74
2021/05/28 08:34:40;;;;;;;8.83;6.57;;;16.30;99.90;;;;;;5031088;28;20182;-74
2021/05/28 08:37:06;;;;;;;8.60;6.23;;;16.80;99.90;;;;;;5031507;28;20470;-70
2021/05/28 08:39:31;;;;;;;6.20;5.47;;;17.10;99.90;;;;;;5031604;28;20174;-74
2021/05/28 08:41:58;;;;;;;6.37;5.07;;;17.20;99.90;;;;;;5032267;28;20178;-74
2021/05/28 08:44:25;;;;;;;10.17;6.30;;;17.20;99.90;;;;;;5029125;28;20194;-75
2021/05/28 08:46:52;;;;;;;7.23;6.50;;;17.30;99.90;;;;;;5031402;28;20444;-74
2021/05/28 08:49:17;;;;;;;9.57;6.60;;;17.60;99.90;;;;;;5027217;28;20869;-75
2021/05/28 08:51:44;;;;;;;8.17;5.13;;;17.90;99.90;;;;;;5031597;28;20416;-74
2021/05/28 08:54:10;;;;;;;8.23;6.40;;;17.90;99.90;;;;;;5029555;28;20200;-74
2021/05/28 08:56:35;;;;;;;7.00;5.40;;;17.90;99.90;;;;;;5024185;28;20436;-74
2021/05/28 08:59:04;;;;;;;6.63;5.83;;;17.70;99.90;;;;;;5030770;28;20205;-75
2021/05/28 09:01:29;;;;;;;7.00;5.47;;;17.60;99.90;;;;;;5007096;28;20178;-75
2021/05/28 09:04:02;;;;;;;8.40;5.50;;;17.40;99.90;;;;;;5031118;28;20547;-77
2021/05/28 09:06:40;;;;;;;4.87;4.30;;;17.20;99.90;;;;;;5029146;28;20577;-74
2021/05/28 09:09:15;;;;;;;6.57;5.33;;;17.20;99.90;;;;;;5028809;28;20472;-74
2021/05/28 09:11:56;;;;;;;5.23;4.73;;;17.00;99.90;;;;;;5027471;28;20486;-75
2021/05/28 09:14:40;;;;;;;8.17;4.67;;;17.00;99.90;;;;;;5025710;28;20519;-74
2021/05/28 09:17:08;;;;;;;6.43;5.40;;;17.10;99.90;;;;;;5015057;28;20410;-76
2021/05/28 09:19:34;;;;;;;4.60;4.30;;;17.00;99.90;;;;;;5028178;28;20440;-75
2021/05/28 09:22:08;;;;;;;6.03;5.50;;;17.00;99.90;;;;;;5034514;28;20523;-75
2021/05/28 09:24:37;;;;;;;6.30;4.43;;;17.00;99.90;;;;;;5029857;28;20504;-76
2021/05/28 09:27:18;;;;;;;7.50;4.57;;;17.00;99.90;;;;;;5029001;28;20559;-75
2021/05/28 09:30:09;;;;;;;5.50;4.43;;;17.30;99.90;;;;;;5016026;28;20475;-75
2021/05/28 09:32:38;;;;;;;4.77;4.37;;;17.40;99.90;;;;;;5024300;28;20424;-75
2021/05/28 09:35:07;;;;;;;4.97;4.53;;;17.30;99.90;;;;;;5032862;28;20436;-72
2021/05/28 09:37:40;;;;;;;5.90;4.27;;;17.20;99.90;;;;;;5034176;28;20446;-75
2021/05/28 09:40:09;;;;;;;5.50;4.57;;;17.10;99.90;;;;;;5031966;28;20440;-75
2021/05/28 09:42:57;;;;;;;7.00;4.57;;;17.10;99.90;;;;;;5011982;28;21058;-74
2021/05/28 09:45:30;;;;;;;6.00;4.27;;;16.80;99.90;;;;;;5012602;28;20424;-75
2021/05/28 09:48:01;;;;;;;9.83;5.60;;;16.80;99.90;;;;;;5033825;28;20464;-75
2021/05/28 09:50:34;;;;;;;7.97;5.10;;;16.70;99.90;;;;;;5033639;28;20817;-74
2021/05/28 09:53:04;;;;;;;6.93;5.07;;;16.50;99.90;;;;;;5029503;28;20818;-76
2021/05/28 09:55:36;;;;;;;5.13;4.53;;;16.50;99.90;;;;;;5032514;28;20815;-76
2021/05/28 09:58:01;;;;;;;5.30;4.47;;;16.40;99.90;;;;;;5030368;28;20523;-75
2021/05/28 10:00:32;;;;;;;5.30;4.80;;;16.50;99.90;;;;;;5032916;28;20519;-74
2021/05/28 10:03:19;;;;;;;5.37;4.73;;;16.60;99.90;;;;;;5031317;28;20186;-74
2021/05/28 10:05:57;;;;;;;6.17;5.10;;;16.80;99.90;;;;;;5015916;28;20510;-74
2021/05/28 10:08:24;;;;;;;4.77;3.87;;;17.00;99.90;;;;;;5029699;28;20543;-74
2021/05/28 10:10:51;;;;;;;5.70;4.70;;;17.30;99.90;;;;;;5031509;28;20440;-74
2021/05/28 10:13:19;;;;;;;3.90;3.60;;;17.40;99.90;;;;;;4996536;28;20449;-74
2021/05/28 10:15:53;;;;;;;3.50;3.27;;;17.70;99.90;;;;;;5029714;28;20440;-72
2021/05/28 10:18:20;;;;;;;4.27;3.20;;;17.90;99.90;;;;;;5033124;28;20852;-77
2021/05/28 10:20:51;;;;;;;3.67;3.37;;;17.90;99.90;;;;;;5031882;28;20648;-74
2021/05/28 10:23:17;;;;;;;4.33;3.93;;;18.30;99.90;;;;;;5033350;28;20510;-74
2021/05/28 10:25:44;;;;;;;4.57;3.83;;;18.60;99.90;;;;;;5024586;28;20448;-74
2021/05/28 10:28:29;;;;;;;4.23;3.50;;;19.20;99.90;;;;;;5033488;28;20510;-75
2021/05/28 10:30:55;;;;;;;2.90;2.50;;;20.30;99.90;;;;;;5021171;28;20496;-74
2021/05/28 10:33:23;;;;;;;4.60;3.47;;;21.20;99.90;;;;;;5018132;28;20424;-75
2021/05/28 10:36:07;;;;;;;3.10;2.80;;;21.80;99.90;;;;;;5031299;28;20182;-74
2021/05/28 10:38:51;;;;;;;6.30;3.53;;;22.20;99.90;;;;;;5030551;28;20527;-74
2021/05/28 10:41:19;;;;;;;3.30;3.10;;;21.70;99.90;;;;;;5025922;28;20484;-77
2021/05/28 10:43:48;;;;;;;3.53;2.40;;;21.10;99.90;;;;;;5033025;28;20503;-74
2021/05/28 10:46:13;;;;;;;3.30;2.93;;;20.40;99.90;;;;;;5031685;28;21016;-76
2021/05/28 10:48:39;;;;;;;3.20;3.00;;;19.70;99.90;;;;;;5030841;28;20468;-75
2021/05/28 10:51:09;;;;;;;2.47;2.37;;;19.20;99.90;;;;;;5033120;28;20188;-74
2021/05/28 10:53:35;;;;;;;4.93;2.20;;;19.30;99.90;;;;;;5030758;28;20174;-74
2021/05/28 10:56:06;;;;;;;4.47;2.80;;;19.80;99.90;;;;;;5014282;28;20459;-74
2021/05/28 10:58:57;;;;;;;3.63;2.27;;;20.40;99.90;;;;;;5012315;28;20614;-75
2021/05/28 11:01:34;;;;;;;1.83;1.73;;;20.60;99.90;;;;;;5011759;28;21006;-74
2021/05/28 11:04:05;;;;;;;4.30;3.90;;;20.30;99.90;;;;;;5020211;28;20439;-74
2021/05/28 11:06:32;;;;;;;5.40;2.87;;;19.90;99.90;;;;;;5032340;28;20428;-75
2021/05/28 11:09:07;;;;;;;2.90;2.70;;;19.30;99.90;;;;;;5031169;28;20502;-74
2021/05/28 11:11:35;;;;;;;3.40;3.10;;;19.20;99.90;;;;;;5026072;28;20483;-74
2021/05/28 11:14:08;;;;;;;4.73;4.13;;;19.00;99.90;;;;;;5026546;28;20444;-74
2021/05/28 11:16:52;;;;;;;3.63;3.33;;;18.60;99.90;;;;;;5028844;28;20499;-74
2021/05/28 11:19:24;;;;;;;5.33;3.30;;;18.70;99.90;;;;;;5030865;28;20763;-74
2021/05/28 11:21:56;;;;;;;4.10;3.77;;;18.80;99.90;;;;;;5023275;28;20443;-75
2021/05/28 11:24:53;;;;;;;3.57;3.27;;;19.00;99.90;;;;;;5032107;28;20463;-74
2021/05/28 11:27:25;;;;;;;4.00;3.60;;;19.20;99.90;;;;;;5029445;28;20448;-77
2021/05/28 11:30:02;;;;;;;3.30;3.10;;;19.00;99.90;;;;;;5032388;28;20460;-76
2021/05/28 11:32:33;;;;;;;8.33;2.97;;;18.70;99.90;;;;;;5006439;28;20439;-75
2021/05/28 11:35:14;;;;;;;3.10;2.90;;;18.60;99.90;;;;;;5032247;28;20412;-73
2021/05/28 11:37:51;;;;;;;7.60;3.30;;;18.60;99.90;;;;;;5029268;28;21179;-74
2021/05/28 11:40:22;;;;;;;3.20;2.90;;;18.80;99.90;;;;;;5012134;28;20446;-74
2021/05/28 11:42:49;;;;;;;6.53;3.30;;;18.80;99.90;;;;;;5012888;28;20475;-75
2021/05/28 11:45:16;;;;;;;3.43;2.37;;;18.90;99.90;;;;;;5032036;28;20417;-77
2021/05/28 11:47:42;;;;;;;2.90;2.70;;;18.70;99.90;;;;;;5030832;28;20468;-74
2021/05/28 11:50:14;;;;;;;3.93;2.73;;;18.50;99.90;;;;;;5031992;28;20550;-74
2021/05/28 11:52:40;;;;;;;3.10;2.60;;;18.40;99.90;;;;;;5029582;28;20433;-74
2021/05/28 11:55:12;;;;;;;2.90;2.30;;;18.40;99.90;;;;;;5025249;28;20452;-74
2021/05/28 11:57:39;;;;;;;4.07;3.20;;;18.70;99.90;;;;;;5029091;28;20683;-75
2021/05/28 12:00:10;;;;;;;4.37;2.60;;;18.90;99.90;;;;;;5029613;28;20518;-74
2021/05/28 12:02:49;;;;;;;4.23;2.60;;;18.70;99.90;;;;;;5031133;28;20499;-75
2021/05/28 12:05:24;;;;;;;4.13;3.03;;;18.60;99.90;;;;;;5013042;28;21003;-74
2021/05/28 12:07:51;;;;;;;3.67;2.87;;;18.60;99.90;;;;;;5032017;28;20435;-77
2021/05/28 12:10:17;;;;;;;3.37;3.03;;;18.50;99.90;;;;;;5024704;28;20551;-75
2021/05/28 12:12:49;;;;;;;2.80;2.70;;;18.50;99.90;;;;;;5031224;28;20453;-74
2021/05/28 12:15:15;;;;;;;3.87;3.57;;;18.40;99.90;;;;;;5027793;28;20428;-75
2021/05/28 12:17:40;;;;;;;4.63;3.27;;;18.30;99.90;;;;;;5031094;28;20451;-76
2021/05/28 12:20:32;;;;;;;5.23;3.20;;;18.20;99.90;;;;;;5011871;28;20437;-74
2021/05/28 12:23:06;;;;;;;9.73;3.60;;;18.10;99.90;;;;;;5009294;28;20210;-75
2021/05/28 12:25:35;;;;;;;2.93;2.73;;;18.10;99.90;;;;;;5015983;28;20446;-74
2021/05/28 12:28:28;;;;;;;6.53;3.00;;;18.00;99.90;;;;;;5031156;28;20440;-75
2021/05/28 12:30:57;;;;;;;3.23;2.33;;;18.30;99.90;;;;;;5026719;28;20832;-75
2021/05/28 12:33:29;;;;;;;2.73;2.53;;;18.70;99.90;;;;;;5031482;28;20409;-75
2021/05/28 12:35:57;;;;;;;2.87;2.67;;;19.30;99.90;;;;;;5031388;28;20408;-74
2021/05/28 12:38:31;;;;;;;2.73;2.53;;;19.30;99.90;;;;;;5027676;28;20830;-74
2021/05/28 12:40:57;;;;;;;2.90;2.67;;;19.20;99.90;;;;;;5012945;28;20518;-74
2021/05/28 12:43:25;;;;;;;2.97;2.67;;;19.30;99.90;;;;;;5029011;28;20437;-75
2021/05/28 12:45:52;;;;;;;3.53;2.17;;;19.20;99.90;;;;;;5031350;28;21000;-74
2021/05/28 12:48:18;;;;;;;2.60;2.40;;;18.90;99.90;;;;;;5028575;28;20509;-78